createdAt,value
2018-11-20T00:02:21.642Z,1.60
2018-11-20T00:05:22.083Z,1.70
2018-11-20T00:08:22.191Z,1.70
2018-11-20T00:11:23.621Z,1.70
2018-11-20T00:14:25.988Z,1.70
2018-11-20T00:17:33.203Z,1.70
2018-11-20T00:20:40.862Z,1.70
2018-11-20T00:23:41.351Z,1.70
2018-11-20T00:26:45.197Z,1.70
2018-11-20T00:29:48.909Z,1.70
2018-11-20T00:32:53.801Z,1.70
2018-11-20T00:35:55.089Z,1.70
2018-11-20T00:38:56.172Z,1.70
2018-11-20T00:41:58.098Z,1.70
2018-11-20T00:44:58.917Z,1.80
2018-11-20T00:47:58.973Z,1.80
2018-11-20T00:51:00.589Z,1.80
2018-11-20T01:00:15.309Z,1.70
2018-11-20T01:09:26.554Z,1.60
2018-11-20T01:12:32.083Z,1.60
2018-11-20T01:15:40.509Z,1.50
2018-11-20T01:18:44.132Z,1.60
2018-11-20T01:21:44.669Z,1.50
2018-11-20T01:24:45.649Z,1.50
2018-11-20T01:27:47.578Z,1.50
2018-11-20T01:30:52.558Z,1.50
2018-11-20T01:33:54.709Z,1.50
2018-11-20T01:37:02.831Z,1.60
2018-11-20T01:40:03.948Z,1.50
2018-11-20T01:46:10.495Z,1.60
2018-11-20T01:49:14.609Z,1.50
2018-11-20T01:52:15.253Z,1.50
2018-11-20T01:55:20.900Z,1.50
2018-11-20T01:58:18.688Z,1.50
2018-11-20T02:01:21.288Z,1.60
2018-11-20T02:07:31.446Z,1.70
2018-11-20T02:10:36.608Z,1.70
2018-11-20T02:13:38.518Z,1.70
2018-11-20T02:19:48.725Z,1.70
2018-11-20T02:22:50.839Z,1.60
2018-11-20T02:25:56.803Z,1.50
2018-11-20T02:31:56.445Z,1.50
2018-11-20T02:34:49.906Z,1.50
2018-11-20T02:37:51.567Z,1.50
2018-11-20T02:40:54.648Z,1.50
2018-11-20T02:46:58.066Z,1.60
2018-11-20T02:50:01.162Z,1.50
2018-11-20T02:56:10.049Z,1.50
2018-11-20T02:59:11.356Z,1.50
2018-11-20T03:02:11.551Z,1.60
2018-11-20T03:05:14.735Z,1.60
2018-11-20T03:08:18.236Z,1.60
2018-11-20T03:11:17.907Z,1.60
2018-11-20T03:17:24.195Z,1.60
2018-11-20T03:20:25.754Z,1.60
2018-11-20T03:23:29.976Z,1.60
2018-11-20T03:26:31.831Z,1.60
2018-11-20T03:32:44.150Z,1.50
2018-11-20T03:35:49.380Z,1.50
2018-11-20T03:44:58.895Z,1.20
2018-11-20T03:51:09.489Z,0.90
2018-11-20T04:00:37.407Z,0.80
2018-11-20T04:03:39.205Z,0.90
2018-11-20T04:06:40.673Z,0.90
2018-11-20T04:09:34.154Z,1.00
2018-11-20T04:15:40.079Z,1.00
2018-11-20T04:18:33.050Z,1.00
2018-11-20T04:21:35.154Z,1.00
2018-11-20T04:27:41.424Z,1.00
2018-11-20T04:30:39.242Z,1.10
2018-11-20T04:33:39.375Z,1.10
2018-11-20T04:36:40.594Z,1.10
2018-11-20T04:42:50.622Z,1.20
2018-11-20T04:45:58.154Z,1.10
2018-11-20T04:48:59.806Z,1.20
2018-11-20T04:52:00.799Z,1.20
2018-11-20T04:58:07.405Z,1.20
2018-11-20T05:01:09.087Z,1.20
2018-11-20T05:04:11.007Z,1.20
2018-11-20T05:07:17.236Z,1.30
2018-11-20T05:13:25.759Z,1.30
2018-11-20T05:16:26.155Z,1.40
2018-11-20T05:22:10.358Z,1.40
2018-11-20T05:25:12.865Z,1.50
2018-11-20T05:28:12.081Z,1.50
2018-11-20T05:31:12.557Z,1.50
2018-11-20T05:37:23.067Z,1.60
2018-11-20T05:43:31.744Z,1.60
2018-11-20T05:46:33.514Z,1.60
2018-11-20T05:49:34.674Z,1.60
2018-11-20T05:52:36.585Z,1.60
2018-11-20T05:58:39.410Z,1.60
2018-11-20T06:01:30.101Z,1.60
2018-11-20T06:04:28.813Z,1.60
2018-11-20T06:07:37.125Z,1.60
2018-11-20T06:19:51.128Z,1.60
2018-11-20T06:22:51.465Z,1.70
2018-11-20T06:25:53.282Z,1.70
2018-11-20T06:28:55.131Z,1.70
2018-11-20T06:31:58.238Z,1.70
2018-11-20T06:34:59.900Z,1.70
2018-11-20T06:38:01.860Z,1.70
2018-11-20T06:41:02.431Z,1.70
2018-11-20T06:47:10.619Z,1.80
2018-11-20T06:50:13.962Z,1.80
2018-11-20T06:53:17.927Z,1.80
2018-11-20T06:56:19.813Z,1.80
2018-11-20T06:59:20.547Z,1.80
2018-11-20T07:02:22.770Z,1.80
2018-11-20T07:05:23.671Z,1.80
2018-11-20T07:08:29.873Z,1.80
2018-11-20T07:11:29.393Z,1.80
2018-11-20T07:17:20.451Z,1.80
2018-11-20T07:20:24.963Z,1.80
2018-11-20T07:23:25.574Z,1.90
2018-11-20T07:26:25.298Z,1.90
2018-11-20T07:29:26.294Z,1.90
2018-11-20T07:32:31.186Z,1.90
2018-11-20T07:41:41.457Z,2.00
2018-11-20T07:44:43.284Z,2.00
2018-11-20T07:47:48.074Z,2.00
2018-11-20T07:53:53.361Z,2.10
2018-11-20T07:56:58.293Z,2.00
2018-11-20T08:00:01.831Z,2.00
2018-11-20T08:03:02.351Z,2.10
2018-11-20T08:06:04.010Z,2.20
2018-11-20T08:09:14.091Z,2.20
2018-11-20T08:12:08.866Z,2.20
2018-11-20T08:21:39.222Z,2.20
2018-11-20T08:24:39.372Z,2.20
2018-11-20T08:27:44.675Z,2.20
2018-11-20T08:30:45.151Z,2.20
2018-11-20T08:33:33.675Z,2.30
2018-11-20T08:36:41.499Z,2.40
2018-11-20T08:39:43.738Z,2.50
2018-11-20T08:42:45.818Z,2.60
2018-11-20T08:45:47.297Z,2.50
2018-11-20T08:48:38.769Z,2.50
2018-11-20T08:51:48.849Z,2.50
2018-11-20T08:54:49.480Z,2.60
2018-11-20T08:57:43.974Z,2.60
2018-11-20T09:03:46.400Z,2.80
2018-11-20T09:06:47.405Z,2.80
2018-11-20T09:09:48.998Z,2.90
2018-11-20T09:12:48.875Z,2.90
2018-11-20T09:15:52.437Z,3.00
2018-11-20T09:21:54.585Z,3.00
2018-11-20T09:24:48.605Z,3.10
2018-11-20T09:31:00.934Z,3.20
2018-11-20T09:34:02.993Z,3.20
2018-11-20T09:37:02.722Z,3.20
2018-11-20T09:43:09.199Z,3.20
2018-11-20T09:49:29.874Z,3.20
2018-11-20T09:55:34.954Z,3.30
2018-11-20T09:58:34.249Z,3.40
2018-11-20T10:04:47.347Z,3.30
2018-11-20T10:07:48.052Z,3.20
2018-11-20T10:10:47.844Z,3.20
2018-11-20T10:13:41.702Z,3.20
2018-11-20T10:16:46.307Z,3.20
2018-11-20T10:22:53.522Z,3.20
2018-11-20T10:25:48.936Z,3.30
2018-11-20T10:31:52.235Z,3.30
2018-11-20T10:37:44.886Z,3.20
2018-11-20T10:40:46.946Z,3.20
2018-11-20T10:43:48.283Z,3.20
2018-11-20T10:46:43.711Z,3.30
2018-11-20T10:49:46.013Z,3.30
2018-11-20T10:52:47.996Z,3.30
2018-11-20T10:55:51.841Z,3.40
2018-11-20T11:01:59.312Z,3.40
2018-11-20T11:08:21.559Z,3.50
2018-11-20T11:14:35.233Z,3.50
2018-11-20T11:17:36.216Z,3.50
2018-11-20T11:20:38.601Z,3.50
2018-11-20T11:26:44.182Z,3.60
2018-11-20T11:29:44.417Z,3.70
2018-11-20T11:32:46.643Z,3.70
2018-11-20T11:35:41.287Z,3.60
2018-11-20T11:38:44.895Z,3.60
2018-11-20T11:47:52.903Z,3.60
2018-11-20T11:50:56.519Z,3.60
2018-11-20T11:57:17.024Z,3.50
2018-11-20T12:00:17.840Z,3.50
2018-11-20T12:03:18.643Z,3.50
2018-11-20T12:12:25.964Z,3.70
2018-11-20T12:15:25.776Z,3.80
2018-11-20T12:18:28.871Z,3.70
2018-11-20T12:24:17.054Z,3.70
2018-11-20T12:27:17.155Z,3.70
2018-11-20T12:33:25.909Z,3.70
2018-11-20T12:36:24.775Z,3.70
2018-11-20T12:39:25.355Z,3.70
2018-11-20T12:42:27.397Z,3.70
2018-11-20T12:45:29.352Z,3.60
2018-11-20T12:54:39.898Z,3.40
2018-11-20T13:03:48.351Z,3.30
2018-11-20T13:06:51.027Z,3.30
2018-11-20T13:09:44.521Z,3.30
2018-11-20T13:15:51.485Z,3.30
2018-11-20T13:18:54.386Z,3.30
2018-11-20T13:21:49.902Z,3.40
2018-11-20T13:24:39.046Z,3.30
2018-11-20T13:27:41.399Z,3.30
2018-11-20T13:30:42.093Z,3.30
2018-11-20T13:33:43.984Z,3.20
2018-11-20T13:36:44.648Z,3.10
2018-11-20T13:42:51.842Z,3.10
2018-11-20T13:48:55.957Z,3.10
2018-11-20T13:55:00.829Z,3.00
2018-11-20T13:58:01.175Z,3.00
2018-11-20T14:04:06.280Z,3.00
2018-11-20T14:07:08.258Z,3.00
2018-11-20T14:10:09.004Z,3.00
2018-11-20T14:13:10.632Z,2.90
2018-11-20T14:16:18.764Z,2.90
2018-11-20T14:19:19.931Z,2.90
2018-11-20T14:22:20.595Z,2.90
2018-11-20T14:31:39.295Z,2.70
2018-11-20T14:34:29.435Z,2.70
2018-11-20T14:37:30.429Z,2.70
2018-11-20T14:46:41.528Z,2.60
2018-11-20T14:49:43.596Z,2.60
2018-11-20T14:55:27.000Z,2.60
2018-11-20T14:58:22.163Z,2.60
2018-11-20T15:01:24.320Z,2.60
2018-11-20T15:04:29.179Z,2.60
2018-11-20T15:07:31.129Z,2.60
2018-11-20T15:13:37.378Z,2.50
2018-11-20T15:16:37.243Z,2.50
2018-11-20T15:19:39.516Z,2.60
2018-11-20T15:22:43.820Z,2.60
2018-11-20T15:28:54.832Z,2.60
2018-11-20T15:35:02.611Z,2.50
2018-11-20T15:38:02.786Z,2.50
2018-11-20T15:44:16.537Z,2.50
2018-11-20T15:47:21.342Z,2.40
2018-11-20T15:53:28.375Z,2.40
2018-11-20T15:56:28.766Z,2.30
2018-11-20T15:59:29.119Z,2.30
2018-11-20T16:02:30.215Z,2.30
2018-11-20T16:08:31.335Z,2.20
2018-11-20T16:11:31.955Z,2.10
2018-11-20T16:20:30.423Z,2.00
2018-11-20T16:23:48.375Z,2.00
2018-11-20T16:26:58.076Z,1.90
2018-11-20T16:29:58.280Z,1.80
2018-11-20T16:32:58.733Z,1.90
2018-11-20T16:36:02.988Z,1.90
2018-11-20T16:42:06.174Z,1.90
2018-11-20T16:48:32.408Z,1.70
2018-11-20T16:54:37.688Z,1.70
2018-11-20T16:57:41.409Z,1.60
2018-11-20T17:00:43.927Z,1.60
2018-11-20T17:03:34.687Z,1.60
2018-11-20T17:06:44.480Z,1.50
2018-11-20T17:09:50.547Z,1.60
2018-11-20T17:12:57.208Z,1.50
2018-11-20T17:15:58.635Z,1.40
2018-11-20T17:18:59.754Z,1.40
2018-11-20T17:22:00.196Z,1.40
2018-11-20T17:25:01.305Z,1.30
2018-11-20T17:27:57.236Z,1.10
2018-11-20T17:31:02.862Z,1.20
2018-11-20T17:34:03.321Z,1.10
2018-11-20T17:37:06.877Z,1.00
2018-11-20T17:42:56.019Z,1.00
2018-11-20T17:45:56.271Z,0.90
2018-11-20T17:52:10.944Z,1.00
2018-11-20T17:58:23.130Z,1.00
2018-11-20T18:01:24.456Z,1.00
2018-11-20T18:04:31.518Z,0.90
2018-11-20T18:07:38.455Z,1.00
2018-11-20T18:10:32.073Z,0.80
2018-11-20T18:13:28.303Z,0.90
2018-11-20T18:19:55.829Z,0.80
2018-11-20T18:22:44.563Z,0.70
2018-11-20T18:25:45.728Z,0.70
2018-11-20T18:28:46.444Z,0.60
2018-11-20T18:34:57.928Z,0.70
2018-11-20T18:38:00.201Z,0.60
2018-11-20T18:44:05.105Z,0.60
2018-11-20T18:46:59.267Z,0.70
2018-11-20T18:50:10.079Z,0.60
2018-11-20T18:59:12.770Z,0.60
2018-11-20T19:02:16.279Z,0.60
2018-11-20T19:08:00.579Z,0.50
2018-11-20T19:13:50.088Z,0.50
2018-11-20T19:20:17.514Z,0.60
2018-11-20T19:23:09.391Z,0.60
2018-11-20T19:26:12.972Z,0.60
2018-11-20T19:32:19.715Z,0.70
2018-11-20T19:35:11.899Z,0.70
2018-11-20T19:41:18.235Z,0.70
2018-11-20T19:44:18.956Z,0.80
2018-11-20T19:50:22.382Z,0.80
2018-11-20T19:53:25.326Z,0.80
2018-11-20T19:56:26.226Z,0.80
2018-11-20T19:59:29.514Z,0.90
2018-11-20T20:02:36.408Z,0.90
2018-11-20T20:11:49.166Z,0.70
2018-11-20T20:14:45.993Z,0.70
2018-11-20T20:17:46.328Z,0.70
2018-11-20T20:20:49.503Z,0.70
2018-11-20T20:23:39.079Z,0.70
2018-11-20T20:26:47.455Z,0.70
2018-11-20T20:29:48.043Z,0.70
2018-11-20T20:32:48.895Z,0.80
2018-11-20T20:35:44.947Z,0.80
2018-11-20T20:38:46.203Z,0.90
2018-11-20T20:41:49.387Z,0.80
2018-11-20T20:44:50.996Z,0.80
2018-11-20T20:47:55.807Z,0.90
2018-11-20T20:50:46.502Z,0.90
2018-11-20T20:53:55.738Z,1.00
2018-11-20T20:56:58.216Z,1.00
2018-11-20T21:00:00.584Z,1.00
2018-11-20T21:03:00.803Z,1.00
2018-11-20T21:06:02.440Z,1.00
2018-11-20T21:09:04.020Z,1.00
2018-11-20T21:12:05.662Z,1.00
2018-11-20T21:15:07.613Z,1.00
2018-11-20T21:24:01.010Z,1.10
2018-11-20T21:30:09.741Z,1.10
2018-11-20T21:33:02.210Z,1.10
2018-11-20T21:36:11.759Z,1.10
2018-11-20T21:39:12.064Z,1.10
2018-11-20T21:42:12.952Z,1.10
2018-11-20T21:45:15.727Z,1.20
2018-11-20T21:51:13.145Z,1.10
2018-11-20T21:54:15.434Z,1.10
2018-11-20T21:57:19.769Z,1.10
2018-11-20T22:00:23.551Z,1.10
2018-11-20T22:03:21.824Z,1.20
2018-11-20T22:06:22.339Z,1.20
2018-11-20T22:09:15.524Z,1.30
2018-11-20T22:15:05.694Z,1.20
2018-11-20T22:21:06.434Z,1.20
2018-11-20T22:27:12.539Z,1.10
2018-11-20T22:33:20.672Z,1.30
2018-11-20T22:39:29.996Z,1.30
2018-11-20T22:45:35.936Z,1.40
2018-11-20T22:54:40.727Z,1.40
2018-11-20T22:57:52.086Z,1.30
2018-11-20T23:00:57.852Z,1.30
2018-11-20T23:03:58.139Z,1.30
2018-11-20T23:06:58.279Z,1.30
2018-11-20T23:09:39.824Z,1.40
2018-11-20T23:12:16.692Z,1.40
2018-11-20T23:15:08.962Z,1.40
2018-11-20T23:17:51.663Z,1.30
2018-11-20T23:20:26.350Z,1.30
2018-11-20T23:23:01.221Z,1.30
2018-11-20T23:25:53.175Z,1.30
2018-11-20T23:28:42.593Z,1.20
2018-11-20T23:31:26.486Z,1.20
2018-11-20T23:34:09.988Z,1.20
2018-11-20T23:36:42.949Z,1.20
2018-11-20T23:39:35.575Z,1.10
2018-11-20T23:42:23.865Z,1.10
2018-11-20T23:45:02.689Z,1.10
2018-11-20T23:47:46.671Z,1.20
2018-11-20T23:50:28.763Z,1.30
2018-11-20T23:53:11.900Z,1.30
2018-11-20T23:55:53.631Z,1.30
2018-11-20T23:58:36.101Z,1.20
